Time;durP1;ratioP1;P1;durP2;ratioP2;P2;SDS_P1;SDS_P2;PMS_P1;PMS_P2;Temp;Humidity;BMP_temperature;BMP_pressure;BME280_temperature;BME280_humidity;BME280_pressure;Samples;Min_cycle;Max_cycle;Signal;HPM_P1;HPM_P2
2022/07/27 00:02:17;;;;;;;7.03;2.10;;;;;;;11.94;84.27;101992.16;6126049;23;20331;-76
2022/07/27 00:04:42;;;;;;;4.38;1.80;;;;;;;11.87;84.30;101994.22;6125740;23;20074;-77
2022/07/27 00:07:08;;;;;;;5.57;2.33;;;;;;;11.89;84.17;102015.69;6125421;23;20065;-74
2022/07/27 00:09:33;;;;;;;7.00;2.08;;;;;;;11.85;84.95;102005.56;6125591;23;20006;-77
2022/07/27 00:11:58;;;;;;;5.43;2.58;;;;;;;11.89;85.07;102020.00;6125441;23;20057;-75
2022/07/27 00:14:24;;;;;;;5.03;2.08;;;;;;;11.82;85.00;102022.09;6125366;23;20018;-77
2022/07/27 00:16:49;;;;;;;5.95;2.50;;;;;;;11.80;85.18;102017.88;6125323;23;20005;-74
2022/07/27 00:19:14;;;;;;;6.90;2.38;;;;;;;11.74;85.31;102019.84;6125232;23;20006;-74
2022/07/27 00:21:39;;;;;;;5.20;2.45;;;;;;;11.56;85.32;101992.25;6125659;23;20006;-76
2022/07/27 00:24:05;;;;;;;6.70;2.60;;;;;;;11.66;85.44;102023.72;6125563;23;20061;-76
2022/07/27 00:26:30;;;;;;;6.90;2.40;;;;;;;11.56;85.36;102014.72;6125659;23;20006;-74
2022/07/27 00:28:56;;;;;;;6.10;2.50;;;;;;;11.24;85.55;101975.72;6125550;23;20420;-75
2022/07/27 00:31:21;;;;;;;7.93;2.50;;;;;;;11.47;86.01;102021.16;6127165;23;20002;-74
2022/07/27 00:33:46;;;;;;;5.88;2.30;;;;;;;11.38;86.44;102006.06;6127385;23;20033;-75
2022/07/27 00:36:12;;;;;;;6.03;2.42;;;;;;;11.40;86.32;102012.00;6127441;23;20125;-75
2022/07/27 00:38:38;;;;;;;5.40;2.58;;;;;;;11.25;86.69;101989.47;6127270;23;20325;-75
2022/07/27 00:41:03;;;;;;;6.30;2.60;;;;;;;11.31;86.33;102012.47;6127165;23;20009;-75
2022/07/27 00:43:29;;;;;;;5.28;2.45;;;;;;;11.17;87.38;102002.75;6127217;23;19998;-74
2022/07/27 00:45:54;;;;;;;5.85;2.92;;;;;;;11.17;86.57;102013.94;6127260;23;20057;-75
2022/07/27 00:48:19;;;;;;;10.85;2.72;;;;;;;11.06;86.78;102002.41;6127128;23;20071;-75
2022/07/27 00:50:45;;;;;;;6.18;2.30;;;;;;;11.06;86.73;102016.19;6099878;23;20501;-77
2022/07/27 00:53:11;;;;;;;5.43;2.50;;;;;;;10.91;87.84;101978.97;6127041;23;20032;-74
2022/07/27 00:55:38;;;;;;;5.40;2.28;;;;;;;11.02;87.53;102008.66;6126808;23;20024;-75
2022/07/27 00:58:07;;;;;;;8.63;2.42;;;;;;;10.84;87.98;101995.66;6127155;23;20005;-75
2022/07/27 01:00:36;;;;;;;5.10;2.53;;;;;;;10.90;87.67;102010.88;6127113;23;20005;-74
2022/07/27 01:03:02;;;;;;;7.88;2.10;;;;;;;10.79;88.18;101996.75;6126960;23;20085;-77
2022/07/27 01:05:28;;;;;;;6.55;2.53;;;;;;;10.88;87.98;102023.03;6127412;23;20089;-75
2022/07/27 01:07:54;;;;;;;6.28;2.67;;;;;;;10.85;87.81;102018.00;6127258;23;20084;-78
2022/07/27 01:10:20;;;;;;;6.03;2.80;;;;;;;10.81;88.41;102018.19;6126761;23;20101;-77
2022/07/27 01:12:45;;;;;;;14.02;2.80;;;;;;;10.73;87.94;102015.13;6126847;23;20040;-76
2022/07/27 01:15:11;;;;;;;5.88;2.45;;;;;;;10.70;87.89;102013.50;6126521;23;20240;-78
2022/07/27 01:17:36;;;;;;;6.63;2.63;;;;;;;10.62;88.34;102007.88;6126829;23;20495;-77
2022/07/27 01:20:02;;;;;;;7.22;2.47;;;;;;;10.62;87.98;102016.44;6126575;23;20014;-75
2022/07/27 01:22:28;;;;;;;5.97;2.83;;;;;;;10.56;88.33;102016.72;6126872;23;20085;-76
2022/07/27 01:24:53;;;;;;;8.25;2.85;;;;;;;10.46;89.04;101993.94;6126904;23;20030;-74
2022/07/27 01:27:18;;;;;;;5.40;2.60;;;;;;;10.53;88.38;102016.84;6126794;23;20014;-77
2022/07/27 01:29:43;;;;;;;4.07;2.38;;;;;;;10.48;88.55;102017.94;6126327;23;20025;-75
2022/07/27 01:32:09;;;;;;;4.75;2.70;;;;;;;10.49;89.31;102019.63;6126622;23;20002;-75
2022/07/27 01:34:34;;;;;;;6.40;2.60;;;;;;;10.45;88.70;102018.94;6126655;23;20002;-74
2022/07/27 01:37:01;;;;;;;7.25;2.90;;;;;;;10.34;89.33;102010.81;6126947;23;20009;-74
2022/07/27 01:39:26;;;;;;;5.85;2.47;;;;;;;10.39;89.00;102021.75;6126600;23;20333;-74
2022/07/27 01:41:52;;;;;;;6.25;2.60;;;;;;;10.33;88.98;102016.88;6125751;23;20002;-76
2022/07/27 01:44:17;;;;;;;6.05;2.63;;;;;;;10.28;89.17;102005.91;6126376;23;20002;-77
2022/07/27 01:46:42;;;;;;;4.30;2.38;;;;;;;10.36;89.00;102014.16;6100410;23;20013;-75
2022/07/27 01:49:08;;;;;;;5.50;2.95;;;;;;;10.34;89.21;102008.22;6126824;23;20357;-76
2022/07/27 01:51:33;;;;;;;5.35;2.53;;;;;;;10.36;89.54;102006.41;6126437;23;20423;-75
2022/07/27 01:53:59;;;;;;;5.22;2.92;;;;;;;10.32;89.24;102008.28;6126538;23;20129;-74
2022/07/27 01:56:24;;;;;;;5.68;2.67;;;;;;;10.30;89.69;102007.50;6126398;23;20006;-75
2022/07/27 01:58:49;;;;;;;6.35;2.60;;;;;;;10.23;89.54;101997.53;6099574;23;20073;-78
2022/07/27 02:01:15;;;;;;;5.93;3.08;;;;;;;10.20;90.32;101992.44;6126343;23;20006;-75
2022/07/27 02:03:40;;;;;;;5.05;2.67;;;;;;;10.21;89.88;102009.59;6126365;23;20462;-74
2022/07/27 02:06:06;;;;;;;6.93;2.47;;;;;;;10.19;89.90;102011.41;6126404;23;20085;-75
2022/07/27 02:08:31;;;;;;;4.00;2.10;;;;;;;9.98;89.56;101979.63;6126389;23;20045;-75
2022/07/27 02:13:48;;;;;;;4.78;2.03;;;;;;;10.06;89.88;102013.69;6126134;23;20344;-77
2022/07/27 02:16:15;;;;;;;3.50;1.98;;;;;;;9.97;89.76;102002.00;6125728;23;20014;-75
2022/07/27 02:18:40;;;;;;;5.53;2.30;;;;;;;9.98;89.88;102014.00;6126214;23;20028;-75
2022/07/27 02:21:05;;;;;;;6.22;2.35;;;;;;;9.96;89.92;102002.91;6126111;23;20409;-76
2022/07/27 02:23:32;;;;;;;6.43;2.50;;;;;;;9.94;89.85;102007.28;6126131;23;20002;-78
2022/07/27 02:25:57;;;;;;;4.45;2.20;;;;;;;9.89;89.69;101996.31;6126335;23;20056;-78
2022/07/27 02:28:23;;;;;;;6.25;2.60;;;;;;;9.77;89.62;101989.09;6126266;23;20005;-77
2022/07/27 02:30:48;;;;;;;5.88;2.70;;;;;;;9.81;90.19;101989.78;6100436;23;20305;-78
2022/07/27 02:33:13;;;;;;;6.32;2.78;;;;;;;9.89;90.33;102005.78;6126334;23;20439;-78
2022/07/27 02:35:39;;;;;;;6.53;2.70;;;;;;;9.87;90.22;101995.53;6126174;23;20002;-80
2022/07/27 02:38:04;;;;;;;5.40;2.70;;;;;;;9.81;90.18;101992.38;6126179;23;20464;-80
2022/07/27 02:40:29;;;;;;;5.93;2.53;;;;;;;9.81;90.43;101992.38;6126109;23;20032;-76
2022/07/27 02:42:55;;;;;;;6.38;2.38;;;;;;;9.79;89.98;101995.00;6126436;23;20005;-76
2022/07/27 02:45:20;;;;;;;5.88;2.72;;;;;;;9.76;90.42;101996.00;6126223;23;20006;-80
2022/07/27 02:47:45;;;;;;;4.47;2.50;;;;;;;9.70;90.70;101992.81;6125849;23;20077;-80
2022/07/27 02:50:11;;;;;;;4.57;2.50;;;;;;;9.71;90.58;101994.47;6100225;23;20009;-77
2022/07/27 02:52:37;;;;;;;4.57;2.75;;;;;;;9.65;90.41;101995.59;6098462;23;20340;-74
2022/07/27 02:55:03;;;;;;;4.93;2.30;;;;;;;9.53;90.52;101974.59;6125801;23;20002;-77
2022/07/27 02:57:29;;;;;;;7.07;2.80;;;;;;;9.61;91.04;101988.03;6124527;23;20009;-77
2022/07/27 02:59:54;;;;;;;6.20;2.90;;;;;;;9.60;91.41;101987.19;6125507;23;20010;-76
2022/07/27 03:02:20;;;;;;;5.80;2.67;;;;;;;9.58;91.28;101988.16;6126186;23;20327;-77
2022/07/27 03:04:45;;;;;;;6.93;2.55;;;;;;;9.57;91.16;101986.47;6125977;23;20325;-77
2022/07/27 03:07:10;;;;;;;6.75;3.13;;;;;;;9.46;90.94;101976.59;6074708;23;20443;-76
2022/07/27 03:09:36;;;;;;;8.82;3.20;;;;;;;9.44;91.43;101974.09;6125781;23;20033;-77
2022/07/27 03:12:02;;;;;;;6.60;3.00;;;;;;;9.51;91.79;101997.88;6125556;23;20423;-77
2022/07/27 03:14:27;;;;;;;7.28;3.25;;;;;;;9.52;91.89;101999.53;6125545;23;20018;-77
2022/07/27 03:16:53;;;;;;;8.35;3.00;;;;;;;9.46;91.76;101995.47;6125987;23;20009;-76
2022/07/27 03:19:18;;;;;;;8.07;3.55;;;;;;;9.42;91.56;102001.63;6125580;23;20002;-77
2022/07/27 03:21:44;;;;;;;6.00;3.15;;;;;;;9.39;91.23;101996.63;6125440;23;20061;-77
2022/07/27 03:24:09;;;;;;;6.95;3.17;;;;;;;9.44;92.13;102007.59;6126084;23;20022;-75
2022/07/27 03:26:34;;;;;;;6.35;3.35;;;;;;;9.34;91.68;101990.81;6125646;23;20006;-79
2022/07/27 03:29:00;;;;;;;6.93;3.42;;;;;;;9.45;91.83;102004.13;6125871;23;20002;-76
2022/07/27 03:31:25;;;;;;;5.88;3.20;;;;;;;9.48;92.42;102008.31;6125530;23;20002;-74
2022/07/27 03:33:50;;;;;;;6.95;3.42;;;;;;;9.48;92.59;102008.31;6125697;23;20029;-75
2022/07/27 03:36:16;;;;;;;6.95;3.45;;;;;;;9.47;92.71;102010.06;6125638;23;20001;-75
2022/07/27 03:38:41;;;;;;;7.38;3.60;;;;;;;9.45;92.70;102009.28;6125619;23;20092;-74
2022/07/27 03:41:06;;;;;;;5.30;2.92;;;;;;;9.36;92.44;101991.59;6125726;23;20013;-75
2022/07/27 03:43:32;;;;;;;4.93;2.65;;;;;;;9.43;92.10;102005.06;6125425;23;20005;-74
2022/07/27 03:45:58;;;;;;;4.38;2.85;;;;;;;9.42;92.54;102004.22;6125325;23;20010;-74
2022/07/27 03:48:23;;;;;;;5.45;2.92;;;;;;;9.35;92.16;101997.66;6125580;23;20005;-75
2022/07/27 03:50:48;;;;;;;6.32;2.95;;;;;;;9.38;92.63;102009.56;6125381;23;20369;-76
2022/07/27 03:53:14;;;;;;;6.43;3.30;;;;;;;9.33;92.19;101996.00;6125374;23;20013;-77
2022/07/27 03:55:39;;;;;;;7.20;3.13;;;;;;;9.40;92.89;102007.75;6125544;23;19997;-75
2022/07/27 03:58:04;;;;;;;5.80;3.30;;;;;;;9.39;92.75;102000.94;6125127;23;20030;-77
2022/07/27 04:00:29;;;;;;;7.70;3.42;;;;;;;9.34;92.43;102006.28;6125506;23;20013;-77
2022/07/27 04:02:55;;;;;;;7.75;3.47;;;;;;;9.32;92.88;102000.31;6125309;23;20005;-77
2022/07/27 04:05:20;;;;;;;6.75;3.63;;;;;;;9.38;93.29;102010.41;6126682;23;20221;-77
2022/07/27 04:07:45;;;;;;;8.60;3.40;;;;;;;9.40;93.28;102011.19;6127855;23;20006;-79
2022/07/27 04:10:11;;;;;;;5.50;3.17;;;;;;;9.44;93.17;102019.66;6127525;23;20006;-77
2022/07/27 04:12:37;;;;;;;7.03;3.47;;;;;;;9.52;93.24;102011.59;6127535;23;20002;-79
2022/07/27 04:15:06;;;;;;;6.53;3.38;;;;;;;9.62;93.26;102015.47;6126233;23;20440;-76
2022/07/27 04:17:31;;;;;;;7.22;3.13;;;;;;;9.75;93.20;102006.38;6125297;23;20430;-76
2022/07/27 04:19:57;;;;;;;8.38;4.05;;;;;;;9.84;93.23;102005.16;6125274;23;20016;-77
2022/07/27 04:22:22;;;;;;;8.70;3.70;;;;;;;9.95;93.58;101997.81;6125277;23;20416;-78
2022/07/27 04:24:48;;;;;;;7.90;3.83;;;;;;;10.18;93.64;102009.75;6125565;23;20081;-77
2022/07/27 04:27:13;;;;;;;8.07;4.13;;;;;;;10.32;93.83;102010.88;6125581;23;20064;-76
2022/07/27 04:29:38;;;;;;;9.57;4.53;;;;;;;10.36;93.49;101998.66;6125401;23;20334;-78
2022/07/27 04:32:04;;;;;;;7.15;3.60;;;;;;;10.60;93.79;102014.81;6125003;23;20439;-75
2022/07/27 04:34:29;;;;;;;9.25;3.78;;;;;;;10.71;93.01;102011.75;6125388;23;20429;-75
2022/07/27 04:36:55;;;;;;;6.95;3.75;;;;;;;10.76;92.90;102023.56;6125407;23;20012;-75
2022/07/27 04:39:20;;;;;;;6.82;3.97;;;;;;;10.83;92.74;102019.81;6125263;23;20010;-76
2022/07/27 04:41:45;;;;;;;7.65;3.83;;;;;;;10.84;92.66;102015.50;6125255;23;20361;-75
2022/07/27 04:44:11;;;;;;;8.23;4.18;;;;;;;10.81;92.43;102020.78;6125231;23;20348;-77
2022/07/27 04:46:36;;;;;;;8.05;4.22;;;;;;;10.77;92.60;102021.84;6124871;23;20096;-75
2022/07/27 04:49:02;;;;;;;8.20;4.43;;;;;;;10.72;92.38;102026.38;6125222;23;20001;-75
2022/07/27 04:51:27;;;;;;;11.15;4.57;;;;;;;10.59;92.60;102013.97;6125276;23;20372;-75
2022/07/27 04:53:52;;;;;;;8.10;4.50;;;;;;;10.46;93.08;101997.34;6125085;23;20424;-75
2022/07/27 04:56:18;;;;;;;8.10;4.40;;;;;;;10.59;93.05;102018.31;6074495;23;20028;-75
2022/07/27 04:58:43;;;;;;;8.02;4.20;;;;;;;10.45;93.42;102000.84;6124846;23;20002;-75
2022/07/27 05:01:11;;;;;;;9.13;4.88;;;;;;;10.60;93.44;102025.16;6125201;23;20137;-75
2022/07/27 05:03:38;;;;;;;10.18;4.97;;;;;;;10.53;94.24;102016.84;6125255;23;20006;-75
2022/07/27 05:06:03;;;;;;;9.43;5.32;;;;;;;10.64;94.48;102024.13;6125163;23;20074;-76
2022/07/27 05:08:28;;;;;;;10.20;4.68;;;;;;;10.71;94.65;102025.50;6125568;23;20006;-78
2022/07/27 05:10:54;;;;;;;10.38;4.63;;;;;;;10.76;93.94;102025.31;6125374;23;20077;-81
2022/07/27 05:13:20;;;;;;;10.13;4.07;;;;;;;11.34;97.71;102031.25;6098467;23;20010;-79
2022/07/27 05:15:45;;;;;;;9.30;4.50;;;;;;;11.86;95.78;102031.38;6076593;23;1166821;-78
2022/07/27 05:18:11;;;;;;;6.50;3.50;;;;;;;12.52;94.84;102033.22;6127211;23;20021;-77
2022/07/27 05:20:36;;;;;;;7.50;3.60;;;;;;;12.90;91.29;102019.09;6127029;23;20037;-79
2022/07/27 05:23:01;;;;;;;7.78;3.63;;;;;;;13.61;88.95;102041.19;6127054;23;20006;-80
2022/07/27 05:25:27;;;;;;;9.77;3.95;;;;;;;14.14;84.05;102019.91;6127491;23;20009;-77
2022/07/27 05:27:52;;;;;;;6.30;3.78;;;;;;;15.00;81.59;102036.38;6126692;23;20050;-80
2022/07/27 05:30:18;;;;;;;8.50;3.53;;;;;;;15.72;78.49;102027.41;6126916;23;20002;-79
2022/07/27 05:32:44;;;;;;;7.97;3.08;;;;;;;16.37;74.25;102034.38;6126459;23;20016;-81
2022/07/27 05:35:09;;;;;;;6.57;3.25;;;;;;;17.32;71.57;102046.03;6126960;23;20080;-79
2022/07/27 05:37:35;;;;;;;7.78;3.50;;;;;;;18.14;67.52;102037.31;6127060;23;20013;-82
2022/07/27 05:40:01;;;;;;;6.40;3.17;;;;;;;18.93;64.77;102019.88;6126656;23;20014;-79
2022/07/27 05:42:27;;;;;;;8.25;2.88;;;;;;;19.91;61.80;102046.81;6126861;23;20006;-77
2022/07/27 05:44:54;;;;;;;8.18;3.20;;;;;;;20.57;58.57;102043.91;6126658;23;20089;-79
2022/07/27 05:47:19;;;;;;;6.20;2.78;;;;;;;21.24;56.02;102043.25;6126585;23;20336;-78
2022/07/27 05:49:45;;;;;;;5.47;2.88;;;;;;;21.86;54.93;102046.47;6126897;23;20010;-75
2022/07/27 05:52:10;;;;;;;8.23;3.28;;;;;;;22.26;52.95;102036.56;6126809;23;20017;-79
2022/07/27 05:54:35;;;;;;;6.75;3.05;;;;;;;22.66;51.09;102034.63;6126634;23;20032;-77
2022/07/27 05:57:01;;;;;;;7.47;2.50;;;;;;;23.29;49.84;102043.38;6127098;23;20006;-78
2022/07/27 05:59:26;;;;;;;7.07;2.90;;;;;;;23.54;47.86;102048.91;6126474;23;20005;-76
2022/07/27 06:01:52;;;;;;;5.50;2.50;;;;;;;24.04;48.02;102047.34;6126731;23;20090;-76
2022/07/27 06:04:17;;;;;;;5.55;2.63;;;;;;;24.26;46.17;102040.69;6126300;23;20012;-84
2022/07/27 06:09:26;;;;;;;7.25;2.60;;;;;;;24.65;44.24;102021.75;6126305;23;20021;-81
2022/07/27 06:11:51;;;;;;;7.32;1.95;;;;;;;25.43;43.85;102053.19;6126764;23;20069;-77
2022/07/27 06:14:17;;;;;;;6.32;1.80;;;;;;;25.78;41.58;102043.31;6126448;23;20006;-74
2022/07/27 06:16:42;;;;;;;6.35;1.70;;;;;;;26.31;39.81;102055.94;6126307;23;20014;-76
2022/07/27 06:19:07;;;;;;;5.20;2.15;;;;;;;26.44;39.57;102056.22;6125624;23;20088;-76
2022/07/27 06:21:33;;;;;;;4.40;1.90;;;;;;;26.41;39.40;102055.75;6127425;23;20125;-81
2022/07/27 06:23:58;;;;;;;7.45;1.98;;;;;;;26.76;39.82;102055.28;6126190;23;20002;-74
2022/07/27 06:26:23;;;;;;;4.68;1.95;;;;;;;27.35;37.45;102052.97;6126583;23;20129;-86
2022/07/27 06:28:49;;;;;;;3.95;1.40;;;;;;;27.33;37.11;102049.66;6099146;23;20014;-79
2022/07/27 06:31:14;;;;;;;6.10;1.95;;;;;;;26.86;38.15;102029.41;6099674;23;20012;-76
2022/07/27 06:33:40;;;;;;;4.53;1.40;;;;;;;27.46;38.19;102054.38;6126334;23;20010;-78
2022/07/27 06:36:07;;;;;;;6.13;1.80;;;;;;;27.79;36.47;102056.78;6126241;23;20006;-79
2022/07/27 06:38:33;;;;;;;4.65;1.52;;;;;;;27.62;37.23;102054.22;6126192;23;20013;-75
2022/07/27 06:40:59;;;;;;;5.70;1.75;;;;;;;28.18;35.95;102019.38;6126149;23;20002;-77
2022/07/27 06:43:27;;;;;;;5.38;1.70;;;;;;;28.35;36.00;102057.22;6099431;23;20009;-78
2022/07/27 06:45:53;;;;;;;5.78;1.45;;;;;;;28.83;33.99;102051.28;6126300;23;20002;-77
2022/07/27 06:48:20;;;;;;;9.07;1.23;;;;;;;28.57;35.41;102035.84;6126179;23;20369;-77
2022/07/27 06:50:46;;;;;;;4.53;1.42;;;;;;;28.83;34.37;102053.94;6125612;23;20138;-77
2022/07/27 06:53:11;;;;;;;6.15;1.15;;;;;;;28.71;33.57;102044.81;6126113;23;20006;-84
2022/07/27 06:55:37;;;;;;;4.55;1.27;;;;;;;28.14;35.27;102044.66;6126321;23;20013;-77
2022/07/27 06:58:02;;;;;;;6.40;1.63;;;;;;;28.56;33.59;102052.81;6125978;23;20339;-81
2022/07/27 07:00:28;;;;;;;3.78;1.50;;;;;;;27.81;36.21;102046.78;6125846;23;20017;-80
2022/07/27 07:02:59;;;;;;;9.02;1.70;;;;;;;27.67;35.90;102043.13;6125716;23;20068;-79
2022/07/27 07:05:25;;;;;;;7.35;1.77;;;;;;;27.85;34.51;102050.75;6126065;23;20013;-76
2022/07/27 07:07:50;;;;;;;5.50;1.73;;;;;;;27.91;36.36;102057.97;6125919;23;20010;-80
2022/07/27 07:10:16;;;;;;;10.77;1.90;;;;;;;27.73;35.57;102063.66;6125710;23;20341;-75
2022/07/27 07:12:41;;;;;;;8.45;1.70;;;;;;;27.97;35.65;102057.28;6126183;23;20053;-83
2022/07/27 07:15:07;;;;;;;7.70;1.67;;;;;;;28.13;35.16;102062.44;6125830;23;20337;-88
2022/07/27 07:17:33;;;;;;;6.68;2.10;;;;;;;28.23;35.68;102051.53;6125567;23;20010;-83
2022/07/27 07:19:58;;;;;;;5.68;1.60;;;;;;;28.43;33.79;102047.34;6125838;23;20017;-82
2022/07/27 07:22:24;;;;;;;7.32;1.90;;;;;;;28.33;34.14;102064.56;6099086;23;20472;-78
2022/07/27 07:24:49;;;;;;;4.78;1.90;;;;;;;28.58;34.05;102073.88;6125870;23;19997;-85
2022/07/27 07:27:15;;;;;;;5.30;1.60;;;;;;;27.81;34.81;102038.84;6125803;23;20066;-75
2022/07/27 07:29:40;;;;;;;4.28;1.45;;;;;;;27.95;33.70;102069.91;6125931;23;20013;-74
2022/07/27 07:32:05;;;;;;;6.00;1.63;;;;;;;27.53;34.25;102079.22;6125931;23;20002;-80
2022/07/27 07:34:31;;;;;;;5.97;1.27;;;;;;;26.79;35.90;102073.50;6125614;23;20428;-76
2022/07/27 07:36:56;;;;;;;5.03;1.20;;;;;;;25.95;37.68;102076.69;6126055;23;20002;-87
2022/07/27 07:39:22;;;;;;;6.15;1.50;;;;;;;24.76;39.46;102078.75;6125461;23;20558;-83
2022/07/27 07:41:47;;;;;;;8.43;1.50;;;;;;;23.13;42.16;102080.97;6125855;23;20032;-76
2022/07/27 07:44:12;;;;;;;5.95;1.52;;;;;;;21.82;45.52;102077.44;6125626;23;20424;-84
2022/07/27 07:46:38;;;;;;;10.63;2.03;;;;;;;20.94;48.53;102093.22;6125218;23;20358;-86
2022/07/27 07:49:04;;;;;;;5.75;1.48;;;;;;;20.04;50.17;102084.16;6125465;23;20010;-77
2022/07/27 07:51:30;;;;;;;6.70;1.50;;;;;;;19.58;51.41;102107.25;6125317;23;20006;-83
2022/07/27 07:53:56;;;;;;;5.20;1.42;;;;;;;19.24;53.62;102088.13;6099568;23;20302;-78
2022/07/27 07:56:21;;;;;;;6.28;1.70;;;;;;;19.17;53.84;102103.47;6099118;23;20100;-83
2022/07/27 07:58:47;;;;;;;5.50;1.40;;;;;;;18.88;54.12;102084.84;6125866;23;20002;-78
2022/07/27 08:01:13;;;;;;;5.10;1.50;;;;;;;18.70;55.87;102100.19;6125355;23;20028;-84
2022/07/27 08:03:38;;;;;;;4.85;1.63;;;;;;;18.50;54.84;102109.53;6125286;23;20006;-85
2022/07/27 08:06:05;;;;;;;5.80;1.65;;;;;;;18.46;55.75;102104.66;6125471;23;20048;-77
2022/07/27 08:08:30;;;;;;;10.30;1.73;;;;;;;18.39;55.85;102099.06;6125664;23;20482;-82
2022/07/27 08:10:55;;;;;;;6.32;1.48;;;;;;;18.14;56.90;102102.69;6125915;23;20073;-77
2022/07/27 08:13:21;;;;;;;6.40;1.35;;;;;;;17.98;57.10;102100.34;6125529;23;20033;-83
2022/07/27 08:15:46;;;;;;;5.88;1.40;;;;;;;18.02;57.94;102109.66;6125302;23;20010;-81
2022/07/27 08:18:12;;;;;;;7.40;1.67;;;;;;;17.77;58.04;102107.16;6125689;23;20387;-79
2022/07/27 08:20:37;;;;;;;4.90;1.33;;;;;;;17.72;57.91;102091.00;6125231;23;20080;-85
2022/07/27 08:23:03;;;;;;;7.28;1.30;;;;;;;17.88;58.11;102112.44;6125670;23;20013;-81
2022/07/27 08:25:29;;;;;;;5.60;1.33;;;;;;;17.94;56.78;102108.56;6125608;23;20034;-79
2022/07/27 08:27:55;;;;;;;4.97;1.20;;;;;;;18.07;55.06;102111.91;6125386;23;20081;-70
2022/07/27 08:30:21;;;;;;;7.32;1.50;;;;;;;18.15;55.28;102113.97;6125633;23;20297;-74
2022/07/27 08:32:54;;;;;;;4.90;1.30;;;;;;;18.36;57.25;102107.13;6124799;23;20096;-79
2022/07/27 08:35:20;;;;;;;5.97;1.42;;;;;;;18.61;56.21;102096.47;6125449;23;20085;-76
2022/07/27 08:37:46;;;;;;;7.15;1.33;;;;;;;18.73;51.01;102094.72;6125661;23;20424;-78
2022/07/27 08:40:13;;;;;;;4.15;1.17;;;;;;;18.84;51.20;102099.94;6125299;23;20068;-72
2022/07/27 08:42:41;;;;;;;4.15;1.10;;;;;;;18.84;51.36;102096.50;6125229;23;20336;-78
2022/07/27 08:45:09;;;;;;;4.65;1.42;;;;;;;18.96;53.53;102077.22;6125576;23;20006;-74
2022/07/27 08:47:35;;;;;;;4.95;1.27;;;;;;;19.23;51.65;102094.31;6125738;23;20009;-76
2022/07/27 08:50:01;;;;;;;5.05;1.10;;;;;;;18.98;49.71;102071.88;6124887;23;20005;-78
2022/07/27 08:52:27;;;;;;;3.83;1.30;;;;;;;18.92;48.56;102081.03;6127355;23;20010;-74
2022/07/27 08:54:52;;;;;;;4.95;1.00;;;;;;;18.75;48.61;102084.13;6126887;23;20083;-73
2022/07/27 08:57:17;;;;;;;3.28;0.95;;;;;;;18.74;48.35;102091.16;6126977;23;20006;-78
2022/07/27 08:59:43;;;;;;;6.75;1.00;;;;;;;18.59;50.17;102090.53;6127021;23;20332;-73
2022/07/27 09:02:11;;;;;;;2.88;1.20;;;;;;;18.47;48.54;102090.63;6100652;23;20010;-77
2022/07/27 09:04:39;;;;;;;4.07;1.23;;;;;;;18.51;49.93;102090.28;6125532;23;20002;-74
2022/07/27 09:07:04;;;;;;;3.85;0.90;;;;;;;18.69;49.25;102090.69;6127580;23;20439;-82
2022/07/27 09:09:43;;;;;;;5.38;1.27;;;;;;;18.87;49.27;102099.69;6127640;23;20006;-80
2022/07/27 09:12:09;;;;;;;4.40;1.20;;;;;;;19.19;50.54;102104.22;6126707;23;20086;-82
2022/07/27 09:14:38;;;;;;;5.95;1.35;;;;;;;19.44;48.58;102100.47;6127164;23;20017;-82
2022/07/27 09:17:26;;;;;;;4.32;1.48;;;;;;;19.66;49.97;102099.59;6126956;23;20013;-82
2022/07/27 09:19:56;;;;;;;5.60;1.30;;;;;;;19.69;47.54;102087.09;6126948;23;20137;-75
2022/07/27 09:22:42;;;;;;;6.82;1.00;;;;;;;19.90;50.80;102094.97;6126878;23;20387;-75
2022/07/27 09:25:09;;;;;;;4.57;1.20;;;;;;;19.83;46.85;102090.34;6126934;23;20006;-75
2022/07/27 09:27:35;;;;;;;5.10;1.42;;;;;;;19.70;48.20;102080.06;6126944;23;20313;-77
2022/07/27 09:30:04;;;;;;;4.00;1.35;;;;;;;19.65;49.45;102095.31;6126632;23;20009;-81
2022/07/27 09:32:30;;;;;;;3.92;1.23;;;;;;;19.77;47.81;102087.28;6126644;23;20057;-74
2022/07/27 09:34:55;;;;;;;3.63;1.05;;;;;;;20.05;47.04;102095.47;6126588;23;20002;-74
2022/07/27 09:37:25;;;;;;;5.75;1.25;;;;;;;20.17;46.63;102096.28;6126883;23;20380;-84
2022/07/27 09:40:09;;;;;;;5.03;1.10;;;;;;;20.15;46.91;102088.50;6126790;23;20017;-76
2022/07/27 09:42:35;;;;;;;4.85;1.35;;;;;;;20.44;47.41;102096.59;6126595;23;20006;-75
2022/07/27 09:45:03;;;;;;;4.15;1.27;;;;;;;20.67;47.86;102085.94;6126679;23;20328;-74
2022/07/27 09:47:29;;;;;;;6.13;1.05;;;;;;;20.50;46.62;102097.88;6126648;23;20006;-74
2022/07/27 09:50:22;;;;;;;6.15;1.40;;;;;;;20.50;48.18;102090.84;6126758;23;20055;-73
2022/07/27 09:52:48;;;;;;;4.57;1.30;;;;;;;20.52;45.40;102091.53;6126189;23;20013;-74
2022/07/27 09:55:13;;;;;;;6.47;1.20;;;;;;;20.50;45.07;102092.63;6127141;23;20439;-73
2022/07/27 09:57:52;;;;;;;4.40;1.20;;;;;;;20.53;47.28;102093.19;6126751;23;20002;-74
2022/07/27 10:00:18;;;;;;;3.90;1.45;;;;;;;20.43;47.63;102096.72;6126412;23;20010;-76
2022/07/27 10:02:43;;;;;;;2.92;1.10;;;;;;;20.23;45.33;102088.72;6125940;23;20305;-74
2022/07/27 10:05:09;;;;;;;4.15;1.45;;;;;;;20.24;45.89;102086.91;6126204;23;20021;-75
2022/07/27 10:07:35;;;;;;;3.85;1.30;;;;;;;19.98;46.21;102036.66;6126142;23;20002;-74
2022/07/27 10:10:03;;;;;;;4.75;1.50;;;;;;;20.19;45.80;102076.81;6126499;23;20417;-76
2022/07/27 10:12:29;;;;;;;5.22;1.23;;;;;;;20.55;47.95;102075.53;6126504;23;20064;-75
2022/07/27 10:14:54;;;;;;;7.70;1.63;;;;;;;21.00;45.73;102088.25;6122711;23;20088;-75
2022/07/27 10:17:20;;;;;;;7.22;2.03;;;;;;;21.25;43.61;102094.00;6126402;23;20030;-80
2022/07/27 10:19:49;;;;;;;6.63;1.88;;;;;;;21.27;44.86;102087.69;6125813;23;20021;-78
2022/07/27 10:22:15;;;;;;;4.18;1.25;;;;;;;21.12;44.87;102083.72;6126203;23;20002;-77
2022/07/27 10:24:40;;;;;;;5.82;1.80;;;;;;;20.95;45.36;102089.66;6126298;23;20021;-79
2022/07/27 10:27:26;;;;;;;5.00;1.77;;;;;;;20.78;46.20;102070.94;6100624;23;20329;-74
2022/07/27 10:29:54;;;;;;;8.48;2.00;;;;;;;20.83;45.68;102091.50;6126226;23;20010;-82
2022/07/27 10:32:25;;;;;;;4.25;1.83;;;;;;;20.87;44.64;102087.69;6126461;23;20002;-72
2022/07/27 10:34:50;;;;;;;6.20;1.70;;;;;;;20.85;46.58;102055.47;6126181;23;20084;-77
2022/07/27 10:37:23;;;;;;;3.60;1.02;;;;;;;21.36;45.04;102086.88;6126227;23;20033;-78
2022/07/27 10:42:38;;;;;;;5.57;1.50;;;;;;;21.19;44.08;102079.59;6126161;23;20131;-77
2022/07/27 10:45:07;;;;;;;5.90;1.30;;;;;;;20.65;46.64;102072.09;6126290;23;20010;-80
2022/07/27 10:47:46;;;;;;;4.60;1.25;;;;;;;20.30;46.50;102084.63;6124954;23;20080;-73
2022/07/27 10:50:14;;;;;;;5.63;1.10;;;;;;;20.28;46.24;102083.09;6126938;23;20305;-72
2022/07/27 10:52:48;;;;;;;7.68;1.77;;;;;;;20.16;46.44;102077.09;6126797;23;20037;-74
2022/07/27 10:55:32;;;;;;;6.25;1.50;;;;;;;20.08;46.12;102079.50;6126026;23;20423;-77
2022/07/27 10:58:13;;;;;;;4.28;1.40;;;;;;;20.05;47.11;102079.75;6126092;23;20730;-76
2022/07/27 11:00:47;;;;;;;3.83;1.40;;;;;;;20.04;47.70;102070.22;6126151;23;20481;-76
2022/07/27 11:03:27;;;;;;;4.75;1.27;;;;;;;20.25;47.26;102065.78;6125964;23;20088;-80
2022/07/27 11:05:56;;;;;;;5.50;1.30;;;;;;;20.21;47.40;102027.69;6126152;23;20331;-82
2022/07/27 11:08:27;;;;;;;2.85;1.08;;;;;;;20.58;45.04;102066.56;6126142;23;20424;-82
2022/07/27 11:10:53;;;;;;;3.95;1.42;;;;;;;20.45;44.54;102064.16;6126124;23;20104;-81
2022/07/27 11:13:20;;;;;;;6.10;1.58;;;;;;;20.47;44.96;102069.28;6125894;23;20401;-81
2022/07/27 11:15:56;;;;;;;5.57;1.50;;;;;;;20.41;45.05;102067.13;6125980;23;20017;-78
2022/07/27 11:18:32;;;;;;;4.93;1.50;;;;;;;20.44;46.65;102066.91;6125672;23;20084;-81
2022/07/27 11:21:19;;;;;;;4.40;1.48;;;;;;;20.45;45.51;102065.94;6125928;23;20376;-80
2022/07/27 11:23:50;;;;;;;5.90;1.40;;;;;;;20.34;44.69;102056.31;6125966;23;20009;-78
2022/07/27 11:26:16;;;;;;;;;;;;;;;20.31;45.80;102059.22;6126247;23;20008;-78
2022/07/27 11:28:42;;;;;;;6.28;1.55;;;;;;;20.08;46.33;102065.56;6126160;23;19912;-78
2022/07/27 11:31:10;;;;;;;5.88;1.70;;;;;;;19.87;44.29;102052.47;6125798;23;20443;-78
2022/07/27 11:33:36;;;;;;;4.78;1.67;;;;;;;19.83;43.77;102064.13;6126194;23;20006;-82